sensor_id;sensor_type;location;lat;lon;timestamp;pressure;altitude;pressure_sealevel;temperature;humidity
67987;BME280;54767;53.800;15.956;2022-08-21T00:01:53;100091.45;;;20.06;76.34
67987;BME280;54767;53.800;15.956;2022-08-21T00:04:21;100089.81;;;20.07;76.34
67987;BME280;54767;53.800;15.956;2022-08-21T00:06:52;100092.45;;;20.08;76.36
67987;BME280;54767;53.800;15.956;2022-08-21T00:09:19;100094.42;;;20.12;76.13
67987;BME280;54767;53.800;15.956;2022-08-21T00:11:47;100096.67;;;20.14;76.03
67987;BME280;54767;53.800;15.956;2022-08-21T00:14:15;100103.38;;;20.15;76.13
67987;BME280;54767;53.800;15.956;2022-08-21T00:16:42;100103.50;;;20.16;76.15
67987;BME280;54767;53.800;15.956;2022-08-21T00:19:10;100097.77;;;20.17;76.04
67987;BME280;54767;53.800;15.956;2022-08-21T00:21:37;100093.84;;;20.17;76.21
67987;BME280;54767;53.800;15.956;2022-08-21T00:24:04;100090.05;;;20.19;76.33
67987;BME280;54767;53.800;15.956;2022-08-21T00:26:31;100085.58;;;20.20;76.25
67987;BME280;54767;53.800;15.956;2022-08-21T00:28:58;100084.61;;;20.21;76.40
67987;BME280;54767;53.800;15.956;2022-08-21T00:31:26;100081.40;;;20.22;76.26
67987;BME280;54767;53.800;15.956;2022-08-21T00:33:53;100085.09;;;20.23;76.32
67987;BME280;54767;53.800;15.956;2022-08-21T00:36:28;100082.11;;;20.22;76.26
67987;BME280;54767;53.800;15.956;2022-08-21T00:38:56;100083.52;;;20.22;76.15
67987;BME280;54767;53.800;15.956;2022-08-21T00:41:24;100084.84;;;20.25;76.26
67987;BME280;54767;53.800;15.956;2022-08-21T00:44:12;100080.79;;;20.28;76.30
67987;BME280;54767;53.800;15.956;2022-08-21T00:46:41;100076.27;;;20.30;76.57
67987;BME280;54767;53.800;15.956;2022-08-21T00:49:10;100082.47;;;20.31;76.50
67987;BME280;54767;53.800;15.956;2022-08-21T00:51:59;100080.41;;;20.29;76.73
67987;BME280;54767;53.800;15.956;2022-08-21T00:54:30;100082.98;;;20.27;76.65
67987;BME280;54767;53.800;15.956;2022-08-21T00:57:07;100084.02;;;20.27;76.81
67987;BME280;54767;53.800;15.956;2022-08-21T00:59:37;100085.59;;;20.28;76.61
67987;BME280;54767;53.800;15.956;2022-08-21T01:02:06;100088.38;;;20.29;76.69
67987;BME280;54767;53.800;15.956;2022-08-21T01:04:34;100090.48;;;20.30;76.79
67987;BME280;54767;53.800;15.956;2022-08-21T01:07:02;100090.11;;;20.30;76.92
67987;BME280;54767;53.800;15.956;2022-08-21T01:09:29;100085.93;;;20.33;76.87
67987;BME280;54767;53.800;15.956;2022-08-21T01:11:56;100086.96;;;20.34;76.89
67987;BME280;54767;53.800;15.956;2022-08-21T01:14:23;100080.02;;;20.34;76.88
67987;BME280;54767;53.800;15.956;2022-08-21T01:16:52;100083.33;;;20.31;76.97
67987;BME280;54767;53.800;15.956;2022-08-21T01:19:20;100078.22;;;20.30;77.18
67987;BME280;54767;53.800;15.956;2022-08-21T01:21:48;100078.26;;;20.29;77.31
67987;BME280;54767;53.800;15.956;2022-08-21T01:24:15;100074.10;;;20.26;77.36
67987;BME280;54767;53.800;15.956;2022-08-21T01:26:43;100070.67;;;20.23;77.31
67987;BME280;54767;53.800;15.956;2022-08-21T01:29:20;100069.02;;;20.20;77.31
67987;BME280;54767;53.800;15.956;2022-08-21T01:31:49;100065.23;;;20.18;77.71
67987;BME280;54767;53.800;15.956;2022-08-21T01:34:17;100059.55;;;20.18;77.76
67987;BME280;54767;53.800;15.956;2022-08-21T01:36:46;100060.73;;;20.15;77.70
67987;BME280;54767;53.800;15.956;2022-08-21T01:39:15;100054.30;;;20.15;77.78
67987;BME280;54767;53.800;15.956;2022-08-21T01:41:42;100052.69;;;20.16;78.01
67987;BME280;54767;53.800;15.956;2022-08-21T01:44:10;100054.30;;;20.16;78.06
67987;BME280;54767;53.800;15.956;2022-08-21T01:46:38;100052.98;;;20.17;78.09
67987;BME280;54767;53.800;15.956;2022-08-21T01:49:05;100054.41;;;20.22;77.96
67987;BME280;54767;53.800;15.956;2022-08-21T01:51:32;100061.05;;;20.28;77.93
67987;BME280;54767;53.800;15.956;2022-08-21T01:53:59;100064.78;;;20.33;77.66
67987;BME280;54767;53.800;15.956;2022-08-21T01:56:26;100060.22;;;20.37;77.51
67987;BME280;54767;53.800;15.956;2022-08-21T01:58:54;100056.95;;;20.38;77.19
67987;BME280;54767;53.800;15.956;2022-08-21T02:01:22;100056.29;;;20.41;77.43
67987;BME280;54767;53.800;15.956;2022-08-21T02:03:49;100060.93;;;20.44;77.19
67987;BME280;54767;53.800;15.956;2022-08-21T02:06:16;100060.09;;;20.47;77.28
67987;BME280;54767;53.800;15.956;2022-08-21T02:08:46;100062.11;;;20.50;77.13
67987;BME280;54767;53.800;15.956;2022-08-21T02:11:13;100066.86;;;20.52;76.80
67987;BME280;54767;53.800;15.956;2022-08-21T02:13:40;100062.08;;;20.51;76.82
67987;BME280;54767;53.800;15.956;2022-08-21T02:16:08;100061.10;;;20.49;77.06
67987;BME280;54767;53.800;15.956;2022-08-21T02:18:36;100063.39;;;20.45;77.17
67987;BME280;54767;53.800;15.956;2022-08-21T02:21:04;100063.21;;;20.46;77.07
67987;BME280;54767;53.800;15.956;2022-08-21T02:23:32;100065.34;;;20.45;76.81
67987;BME280;54767;53.800;15.956;2022-08-21T02:26:01;100070.45;;;20.46;76.89
67987;BME280;54767;53.800;15.956;2022-08-21T02:28:29;100065.71;;;20.49;77.15
67987;BME280;54767;53.800;15.956;2022-08-21T02:30:57;100062.34;;;20.49;76.73
67987;BME280;54767;53.800;15.956;2022-08-21T02:33:25;100057.89;;;20.49;76.77
67987;BME280;54767;53.800;15.956;2022-08-21T02:35:54;100056.69;;;20.48;77.00
67987;BME280;54767;53.800;15.956;2022-08-21T02:38:28;100053.70;;;20.47;76.94
67987;BME280;54767;53.800;15.956;2022-08-21T02:40:56;100055.30;;;20.47;76.86
67987;BME280;54767;53.800;15.956;2022-08-21T02:43:26;100052.63;;;20.47;76.80
67987;BME280;54767;53.800;15.956;2022-08-21T02:45:56;100053.22;;;20.46;76.68
67987;BME280;54767;53.800;15.956;2022-08-21T02:48:24;100052.27;;;20.47;76.71
67987;BME280;54767;53.800;15.956;2022-08-21T02:50:54;100051.08;;;20.46;76.58
67987;BME280;54767;53.800;15.956;2022-08-21T02:53:23;100048.48;;;20.45;76.84
67987;BME280;54767;53.800;15.956;2022-08-21T02:55:51;100043.70;;;20.44;76.66
67987;BME280;54767;53.800;15.956;2022-08-21T02:58:24;100041.08;;;20.43;76.75
67987;BME280;54767;53.800;15.956;2022-08-21T03:00:52;100043.66;;;20.45;76.78
67987;BME280;54767;53.800;15.956;2022-08-21T03:03:21;100042.35;;;20.47;76.72
67987;BME280;54767;53.800;15.956;2022-08-21T03:05:49;100048.15;;;20.48;76.60
67987;BME280;54767;53.800;15.956;2022-08-21T03:08:17;100045.47;;;20.49;76.86
67987;BME280;54767;53.800;15.956;2022-08-21T03:10:47;100043.69;;;20.49;76.74
67987;BME280;54767;53.800;15.956;2022-08-21T03:13:16;100045.00;;;20.47;76.55
67987;BME280;54767;53.800;15.956;2022-08-21T03:15:44;100039.63;;;20.44;76.74
67987;BME280;54767;53.800;15.956;2022-08-21T03:18:12;100035.86;;;20.40;76.81
67987;BME280;54767;53.800;15.956;2022-08-21T03:20:41;100035.35;;;20.40;76.52
67987;BME280;54767;53.800;15.956;2022-08-21T03:23:09;100039.09;;;20.40;76.77
67987;BME280;54767;53.800;15.956;2022-08-21T03:25:40;100050.17;;;20.43;76.78
67987;BME280;54767;53.800;15.956;2022-08-21T03:28:13;100042.93;;;20.46;76.51
67987;BME280;54767;53.800;15.956;2022-08-21T03:30:43;100042.70;;;20.47;76.67
67987;BME280;54767;53.800;15.956;2022-08-21T03:33:11;100044.48;;;20.47;76.67
67987;BME280;54767;53.800;15.956;2022-08-21T03:35:43;100040.87;;;20.44;76.56
67987;BME280;54767;53.800;15.956;2022-08-21T03:38:12;100044.02;;;20.41;76.69
67987;BME280;54767;53.800;15.956;2022-08-21T03:40:42;100042.98;;;20.40;76.83
67987;BME280;54767;53.800;15.956;2022-08-21T03:43:10;100048.30;;;20.41;76.73
67987;BME280;54767;53.800;15.956;2022-08-21T03:45:38;100047.72;;;20.41;76.80
67987;BME280;54767;53.800;15.956;2022-08-21T03:48:07;100048.79;;;20.42;76.69
67987;BME280;54767;53.800;15.956;2022-08-21T03:50:38;100050.23;;;20.41;76.67
67987;BME280;54767;53.800;15.956;2022-08-21T03:53:10;100055.73;;;20.41;76.77
67987;BME280;54767;53.800;15.956;2022-08-21T03:55:46;100053.08;;;20.41;76.85
67987;BME280;54767;53.800;15.956;2022-08-21T03:58:15;100046.73;;;20.40;76.54
67987;BME280;54767;53.800;15.956;2022-08-21T04:00:46;100053.46;;;20.40;76.43
67987;BME280;54767;53.800;15.956;2022-08-21T04:03:15;100055.89;;;20.42;76.57
67987;BME280;54767;53.800;15.956;2022-08-21T04:05:42;100057.27;;;20.43;76.49
67987;BME280;54767;53.800;15.956;2022-08-21T04:08:12;100054.86;;;20.41;76.41
67987;BME280;54767;53.800;15.956;2022-08-21T04:10:40;100057.93;;;20.40;76.40
67987;BME280;54767;53.800;15.956;2022-08-21T04:13:08;100055.61;;;20.40;76.61
67987;BME280;54767;53.800;15.956;2022-08-21T04:15:35;100063.63;;;20.40;76.46
67987;BME280;54767;53.800;15.956;2022-08-21T04:18:04;100062.46;;;20.42;76.33
67987;BME280;54767;53.800;15.956;2022-08-21T04:20:32;100057.72;;;20.45;76.33
67987;BME280;54767;53.800;15.956;2022-08-21T04:23:00;100058.21;;;20.46;76.36
67987;BME280;54767;53.800;15.956;2022-08-21T04:25:28;100061.02;;;20.47;76.50
67987;BME280;54767;53.800;15.956;2022-08-21T04:27:55;100064.42;;;20.46;76.45
67987;BME280;54767;53.800;15.956;2022-08-21T04:30:23;100066.26;;;20.45;76.39
67987;BME280;54767;53.800;15.956;2022-08-21T04:32:56;100063.51;;;20.47;76.49
67987;BME280;54767;53.800;15.956;2022-08-21T04:35:27;100061.67;;;20.48;76.31
67987;BME280;54767;53.800;15.956;2022-08-21T04:37:54;100062.17;;;20.49;76.46
67987;BME280;54767;53.800;15.956;2022-08-21T04:40:23;100064.16;;;20.48;76.37
67987;BME280;54767;53.800;15.956;2022-08-21T04:42:57;100063.52;;;20.50;76.33
67987;BME280;54767;53.800;15.956;2022-08-21T04:45:30;100065.08;;;20.52;76.26
67987;BME280;54767;53.800;15.956;2022-08-21T04:48:00;100060.26;;;20.53;76.51
67987;BME280;54767;53.800;15.956;2022-08-21T04:50:41;100065.77;;;20.52;76.50
67987;BME280;54767;53.800;15.956;2022-08-21T04:53:14;100073.62;;;20.51;76.47
67987;BME280;54767;53.800;15.956;2022-08-21T04:55:43;100077.85;;;20.53;76.50
67987;BME280;54767;53.800;15.956;2022-08-21T04:58:14;100080.45;;;20.55;76.43
67987;BME280;54767;53.800;15.956;2022-08-21T05:00:42;100079.11;;;20.57;76.29
67987;BME280;54767;53.800;15.956;2022-08-21T05:03:11;100080.13;;;20.58;76.48
67987;BME280;54767;53.800;15.956;2022-08-21T05:05:39;100080.09;;;20.59;76.31
67987;BME280;54767;53.800;15.956;2022-08-21T05:08:07;100086.05;;;20.57;76.47
67987;BME280;54767;53.800;15.956;2022-08-21T05:10:36;100086.45;;;20.56;76.53
67987;BME280;54767;53.800;15.956;2022-08-21T05:13:03;100086.55;;;20.53;76.59
67987;BME280;54767;53.800;15.956;2022-08-21T05:15:32;100084.59;;;20.53;76.47
67987;BME280;54767;53.800;15.956;2022-08-21T05:17:59;100081.80;;;20.51;76.58
67987;BME280;54767;53.800;15.956;2022-08-21T05:20:28;100084.71;;;20.49;76.90
67987;BME280;54767;53.800;15.956;2022-08-21T05:22:56;100085.65;;;20.49;76.77
67987;BME280;54767;53.800;15.956;2022-08-21T05:25:23;100087.25;;;20.49;77.00
67987;BME280;54767;53.800;15.956;2022-08-21T05:27:50;100088.89;;;20.48;77.04
67987;BME280;54767;53.800;15.956;2022-08-21T05:30:20;100086.10;;;20.46;77.05
67987;BME280;54767;53.800;15.956;2022-08-21T05:32:47;100090.01;;;20.42;76.91
67987;BME280;54767;53.800;15.956;2022-08-21T05:35:15;100087.27;;;20.35;77.04
67987;BME280;54767;53.800;15.956;2022-08-21T05:37:42;100083.80;;;20.33;77.38
67987;BME280;54767;53.800;15.956;2022-08-21T05:40:09;100090.06;;;20.32;77.18
67987;BME280;54767;53.800;15.956;2022-08-21T05:42:50;100091.50;;;20.31;77.15
67987;BME280;54767;53.800;15.956;2022-08-21T05:45:26;100092.38;;;20.32;77.24
67987;BME280;54767;53.800;15.956;2022-08-21T05:48:17;100088.94;;;20.33;77.27
67987;BME280;54767;53.800;15.956;2022-08-21T05:50:46;100097.96;;;20.34;77.26
67987;BME280;54767;53.800;15.956;2022-08-21T05:53:15;100092.54;;;20.37;77.35
67987;BME280;54767;53.800;15.956;2022-08-21T05:55:43;100093.66;;;20.40;77.49
67987;BME280;54767;53.800;15.956;2022-08-21T05:58:15;100093.82;;;20.40;77.36
67987;BME280;54767;53.800;15.956;2022-08-21T06:00:43;100098.46;;;20.44;77.19
67987;BME280;54767;53.800;15.956;2022-08-21T06:03:22;100098.50;;;20.43;77.07
67987;BME280;54767;53.800;15.956;2022-08-21T06:05:50;100101.91;;;20.42;77.31
67987;BME280;54767;53.800;15.956;2022-08-21T06:08:18;100102.08;;;20.42;77.17
67987;BME280;54767;53.800;15.956;2022-08-21T06:10:47;100100.27;;;20.43;77.26
67987;BME280;54767;53.800;15.956;2022-08-21T06:13:16;100102.27;;;20.46;77.28
67987;BME280;54767;53.800;15.956;2022-08-21T06:15:44;100104.69;;;20.48;77.11
67987;BME280;54767;53.800;15.956;2022-08-21T06:18:11;100102.48;;;20.50;77.20
67987;BME280;54767;53.800;15.956;2022-08-21T06:20:39;100104.19;;;20.52;77.19
67987;BME280;54767;53.800;15.956;2022-08-21T06:23:07;100103.00;;;20.55;77.22
67987;BME280;54767;53.800;15.956;2022-08-21T06:25:35;100106.95;;;20.54;76.94
67987;BME280;54767;53.800;15.956;2022-08-21T06:28:05;100102.20;;;20.52;77.14
67987;BME280;54767;53.800;15.956;2022-08-21T06:30:34;100101.12;;;20.53;77.15
67987;BME280;54767;53.800;15.956;2022-08-21T06:33:03;100101.10;;;20.54;77.15
67987;BME280;54767;53.800;15.956;2022-08-21T06:35:30;100102.36;;;20.54;77.35
67987;BME280;54767;53.800;15.956;2022-08-21T06:37:57;100102.75;;;20.53;77.10
67987;BME280;54767;53.800;15.956;2022-08-21T06:40:26;100103.58;;;20.54;77.09
67987;BME280;54767;53.800;15.956;2022-08-21T06:42:58;100105.43;;;20.57;77.18
67987;BME280;54767;53.800;15.956;2022-08-21T06:45:31;100107.90;;;20.57;77.03
67987;BME280;54767;53.800;15.956;2022-08-21T06:47:59;100106.48;;;20.58;77.04
67987;BME280;54767;53.800;15.956;2022-08-21T06:50:26;100104.30;;;20.59;77.15
67987;BME280;54767;53.800;15.956;2022-08-21T06:53:03;100107.61;;;20.60;76.93
67987;BME280;54767;53.800;15.956;2022-08-21T06:55:32;100111.12;;;20.61;76.84
67987;BME280;54767;53.800;15.956;2022-08-21T06:57:59;100109.26;;;20.64;76.80
67987;BME280;54767;53.800;15.956;2022-08-21T07:00:27;100107.58;;;20.65;76.76
67987;BME280;54767;53.800;15.956;2022-08-21T07:02:54;100106.32;;;20.61;76.62
67987;BME280;54767;53.800;15.956;2022-08-21T07:05:25;100110.61;;;20.57;76.39
67987;BME280;54767;53.800;15.956;2022-08-21T07:07:52;100111.89;;;20.50;76.61
67987;BME280;54767;53.800;15.956;2022-08-21T07:10:19;100113.23;;;20.44;76.71
67987;BME280;54767;53.800;15.956;2022-08-21T07:12:49;100111.90;;;20.41;77.02
67987;BME280;54767;53.800;15.956;2022-08-21T07:15:31;100116.44;;;20.39;76.73
67987;BME280;54767;53.800;15.956;2022-08-21T07:17:58;100117.34;;;20.39;77.01
67987;BME280;54767;53.800;15.956;2022-08-21T07:20:31;100113.57;;;20.39;77.02
67987;BME280;54767;53.800;15.956;2022-08-21T07:23:02;100116.38;;;20.41;76.79
67987;BME280;54767;53.800;15.956;2022-08-21T07:25:30;100114.16;;;20.38;76.70
67987;BME280;54767;53.800;15.956;2022-08-21T07:27:57;100112.59;;;20.37;76.56
67987;BME280;54767;53.800;15.956;2022-08-21T07:30:26;100108.05;;;20.36;76.77
67987;BME280;54767;53.800;15.956;2022-08-21T07:32:54;100107.59;;;20.34;76.80
67987;BME280;54767;53.800;15.956;2022-08-21T07:35:22;100111.73;;;20.32;76.77
67987;BME280;54767;53.800;15.956;2022-08-21T07:37:50;100111.48;;;20.29;76.84
67987;BME280;54767;53.800;15.956;2022-08-21T07:40:18;100110.62;;;20.29;77.09
67987;BME280;54767;53.800;15.956;2022-08-21T07:42:47;100114.39;;;20.28;77.17
67987;BME280;54767;53.800;15.956;2022-08-21T07:45:20;100114.23;;;20.27;77.17
67987;BME280;54767;53.800;15.956;2022-08-21T07:47:53;100115.69;;;20.27;77.26
67987;BME280;54767;53.800;15.956;2022-08-21T07:50:24;100114.59;;;20.27;77.25
67987;BME280;54767;53.800;15.956;2022-08-21T07:52:51;100117.42;;;20.28;77.36
67987;BME280;54767;53.800;15.956;2022-08-21T07:55:20;100120.09;;;20.28;77.30
67987;BME280;54767;53.800;15.956;2022-08-21T07:57:48;100117.77;;;20.23;77.21
67987;BME280;54767;53.800;15.956;2022-08-21T08:00:19;100122.52;;;20.25;77.42
67987;BME280;54767;53.800;15.956;2022-08-21T08:02:49;100122.85;;;20.25;77.49
67987;BME280;54767;53.800;15.956;2022-08-21T08:05:19;100127.79;;;20.26;77.63
67987;BME280;54767;53.800;15.956;2022-08-21T08:07:46;100127.30;;;20.29;77.61
67987;BME280;54767;53.800;15.956;2022-08-21T08:10:15;100131.10;;;20.28;77.38
67987;BME280;54767;53.800;15.956;2022-08-21T08:12:44;100137.34;;;20.28;77.31
67987;BME280;54767;53.800;15.956;2022-08-21T08:15:15;100132.02;;;20.27;77.60
67987;BME280;54767;53.800;15.956;2022-08-21T08:17:43;100135.10;;;20.25;77.50
67987;BME280;54767;53.800;15.956;2022-08-21T08:20:14;100136.47;;;20.23;77.45
67987;BME280;54767;53.800;15.956;2022-08-21T08:22:46;100140.10;;;20.20;77.42
67987;BME280;54767;53.800;15.956;2022-08-21T08:25:18;100140.55;;;20.18;77.38
67987;BME280;54767;53.800;15.956;2022-08-21T08:27:46;100141.96;;;20.18;77.46
67987;BME280;54767;53.800;15.956;2022-08-21T08:30:15;100144.52;;;20.21;77.38
67987;BME280;54767;53.800;15.956;2022-08-21T08:32:44;100149.85;;;20.21;77.13
67987;BME280;54767;53.800;15.956;2022-08-21T08:35:11;100150.17;;;20.18;76.89
67987;BME280;54767;53.800;15.956;2022-08-21T08:37:40;100153.04;;;20.12;76.96
67987;BME280;54767;53.800;15.956;2022-08-21T08:43:10;100158.23;;;19.97;76.51
67987;BME280;54767;53.800;15.956;2022-08-21T08:45:48;100161.89;;;19.90;76.42
67987;BME280;54767;53.800;15.956;2022-08-21T08:48:36;100161.91;;;19.89;76.69
67987;BME280;54767;53.800;15.956;2022-08-21T08:51:11;100165.17;;;19.92;77.01
67987;BME280;54767;53.800;15.956;2022-08-21T08:54:11;100165.54;;;19.97;76.88
67987;BME280;54767;53.800;15.956;2022-08-21T08:56:41;100164.88;;;20.00;77.03
67987;BME280;54767;53.800;15.956;2022-08-21T08:59:18;100163.88;;;20.03;77.15
67987;BME280;54767;53.800;15.956;2022-08-21T09:01:47;100166.55;;;20.02;77.03
67987;BME280;54767;53.800;15.956;2022-08-21T09:04:23;100168.26;;;20.00;76.91
67987;BME280;54767;53.800;15.956;2022-08-21T09:07:19;100168.98;;;20.00;76.91
67987;BME280;54767;53.800;15.956;2022-08-21T09:12:33;100174.45;;;20.05;76.80
67987;BME280;54767;53.800;15.956;2022-08-21T09:18:26;100173.34;;;19.97;76.07
67987;BME280;54767;53.800;15.956;2022-08-21T09:20:41;100169.83;;;19.91;76.14
67987;BME280;54767;53.800;15.956;2022-08-21T09:23:38;100170.95;;;19.90;76.19
67987;BME280;54767;53.800;15.956;2022-08-21T09:26:16;100171.20;;;19.88;76.43
67987;BME280;54767;53.800;15.956;2022-08-21T09:28:45;100174.52;;;19.89;76.06
67987;BME280;54767;53.800;15.956;2022-08-21T09:31:43;100173.34;;;19.92;76.36
67987;BME280;54767;53.800;15.956;2022-08-21T09:34:11;100175.61;;;19.98;76.39
67987;BME280;54767;53.800;15.956;2022-08-21T09:36:45;100176.77;;;20.00;76.24
67987;BME280;54767;53.800;15.956;2022-08-21T09:39:26;100175.27;;;20.02;75.73
67987;BME280;54767;53.800;15.956;2022-08-21T09:45:23;100176.71;;;19.97;75.30
67987;BME280;54767;53.800;15.956;2022-08-21T09:47:51;100179.52;;;19.94;75.40
67987;BME280;54767;53.800;15.956;2022-08-21T09:50:24;100181.17;;;19.92;74.84
67987;BME280;54767;53.800;15.956;2022-08-21T09:53:03;100184.54;;;19.92;74.96
67987;BME280;54767;53.800;15.956;2022-08-21T09:55:49;100184.77;;;19.90;75.05
67987;BME280;54767;53.800;15.956;2022-08-21T09:58:39;100189.23;;;19.90;75.13
67987;BME280;54767;53.800;15.956;2022-08-21T10:01:17;100184.15;;;19.88;75.04
67987;BME280;54767;53.800;15.956;2022-08-21T10:04:03;100193.25;;;19.87;74.77
67987;BME280;54767;53.800;15.956;2022-08-21T10:06:31;100195.97;;;19.85;74.81
67987;BME280;54767;53.800;15.956;2022-08-21T10:09:09;100195.55;;;19.88;74.89
67987;BME280;54767;53.800;15.956;2022-08-21T10:14:49;100194.55;;;19.95;74.94
67987;BME280;54767;53.800;15.956;2022-08-21T10:29:09;100193.27;;;19.86;74.40
67987;BME280;54767;53.800;15.956;2022-08-21T10:46:36;100197.85;;;19.88;73.58
67987;BME280;54767;53.800;15.956;2022-08-21T10:49:21;100198.30;;;19.90;73.60
67987;BME280;54767;53.800;15.956;2022-08-21T10:52:08;100205.83;;;19.88;72.54
67987;BME280;54767;53.800;15.956;2022-08-21T10:57:41;100209.06;;;19.82;72.43
67987;BME280;54767;53.800;15.956;2022-08-21T11:00:15;100209.33;;;19.80;72.87
67987;BME280;54767;53.800;15.956;2022-08-21T11:03:02;100209.77;;;19.77;72.65
67987;BME280;54767;53.800;15.956;2022-08-21T11:05:35;100204.42;;;19.73;72.22
67987;BME280;54767;53.800;15.956;2022-08-21T11:08:27;100206.03;;;19.72;72.53
67987;BME280;54767;53.800;15.956;2022-08-21T11:11:04;100207.71;;;19.71;72.34
67987;BME280;54767;53.800;15.956;2022-08-21T11:13:49;100206.92;;;19.72;72.39
67987;BME280;54767;53.800;15.956;2022-08-21T11:19:02;100213.71;;;19.76;72.88
67987;BME280;54767;53.800;15.956;2022-08-21T11:21:42;100215.38;;;19.79;73.15
67987;BME280;54767;53.800;15.956;2022-08-21T11:27:26;100221.80;;;19.88;73.07
67987;BME280;54767;53.800;15.956;2022-08-21T11:29:57;100228.22;;;19.93;73.00
67987;BME280;54767;53.800;15.956;2022-08-21T11:38:34;100226.80;;;19.93;72.27
67987;BME280;54767;53.800;15.956;2022-08-21T11:41:32;100221.99;;;19.93;72.80
67987;BME280;54767;53.800;15.956;2022-08-21T11:50:15;100227.77;;;19.95;72.80
67987;BME280;54767;53.800;15.956;2022-08-21T11:53:30;100230.54;;;19.97;73.13
67987;BME280;54767;53.800;15.956;2022-08-21T11:56:03;100235.63;;;19.99;72.93
67987;BME280;54767;53.800;15.956;2022-08-21T11:58:42;100240.10;;;19.98;72.88
67987;BME280;54767;53.800;15.956;2022-08-21T12:01:19;100245.10;;;19.97;72.57
67987;BME280;54767;53.800;15.956;2022-08-21T12:03:56;100246.09;;;19.99;72.67
67987;BME280;54767;53.800;15.956;2022-08-21T12:06:31;100246.26;;;19.99;72.48
67987;BME280;54767;53.800;15.956;2022-08-21T12:09:02;100247.02;;;19.98;72.37
67987;BME280;54767;53.800;15.956;2022-08-21T12:11:31;100244.95;;;19.97;72.57
67987;BME280;54767;53.800;15.956;2022-08-21T12:16:41;100245.79;;;19.98;73.04
67987;BME280;54767;53.800;15.956;2022-08-21T12:22:07;100240.35;;;20.01;73.00
67987;BME280;54767;53.800;15.956;2022-08-21T12:29:50;100243.84;;;20.02;72.92
67987;BME280;54767;53.800;15.956;2022-08-21T12:35:36;100245.60;;;19.98;72.61
67987;BME280;54767;53.800;15.956;2022-08-21T12:40:43;100243.27;;;19.99;72.58
67987;BME280;54767;53.800;15.956;2022-08-21T12:43:18;100239.89;;;19.98;72.66
67987;BME280;54767;53.800;15.956;2022-08-21T12:45:49;100240.38;;;20.00;72.75
67987;BME280;54767;53.800;15.956;2022-08-21T12:48:29;100242.83;;;20.01;72.89
67987;BME280;54767;53.800;15.956;2022-08-21T12:51:42;100241.89;;;20.03;73.03
67987;BME280;54767;53.800;15.956;2022-08-21T12:54:08;100243.66;;;20.07;73.13
67987;BME280;54767;53.800;15.956;2022-08-21T12:56:36;100242.20;;;20.08;72.68
67987;BME280;54767;53.800;15.956;2022-08-21T12:59:10;100242.16;;;20.09;72.93
67987;BME280;54767;53.800;15.956;2022-08-21T13:01:43;100247.02;;;20.13;73.14
67987;BME280;54767;53.800;15.956;2022-08-21T13:04:17;100243.65;;;20.12;72.87
67987;BME280;54767;53.800;15.956;2022-08-21T13:06:49;100244.52;;;20.13;72.78
67987;BME280;54767;53.800;15.956;2022-08-21T13:09:24;100243.14;;;20.12;72.82
67987;BME280;54767;53.800;15.956;2022-08-21T13:11:53;100244.07;;;20.11;72.40
67987;BME280;54767;53.800;15.956;2022-08-21T13:14:33;100234.82;;;20.06;72.50
67987;BME280;54767;53.800;15.956;2022-08-21T13:17:11;100230.89;;;20.02;72.62
67987;BME280;54767;53.800;15.956;2022-08-21T13:19:57;100231.38;;;19.98;72.38
67987;BME280;54767;53.800;15.956;2022-08-21T13:22:26;100227.20;;;19.96;72.95
67987;BME280;54767;53.800;15.956;2022-08-21T13:25:02;100229.09;;;19.98;73.20
67987;BME280;54767;53.800;15.956;2022-08-21T13:27:33;100223.61;;;20.02;73.37
67987;BME280;54767;53.800;15.956;2022-08-21T13:30:21;100227.10;;;20.08;73.16
67987;BME280;54767;53.800;15.956;2022-08-21T13:32:57;100222.10;;;20.09;72.61
67987;BME280;54767;53.800;15.956;2022-08-21T13:35:36;100222.88;;;20.07;72.70
67987;BME280;54767;53.800;15.956;2022-08-21T13:38:05;100223.04;;;20.07;73.08
67987;BME280;54767;53.800;15.956;2022-08-21T13:40:41;100221.77;;;20.13;73.47
67987;BME280;54767;53.800;15.956;2022-08-21T13:43:14;100219.77;;;20.19;73.19
67987;BME280;54767;53.800;15.956;2022-08-21T13:45:53;100220.29;;;20.24;72.81
67987;BME280;54767;53.800;15.956;2022-08-21T13:48:22;100222.25;;;20.28;72.73
67987;BME280;54767;53.800;15.956;2022-08-21T13:50:52;100220.67;;;20.32;72.69
67987;BME280;54767;53.800;15.956;2022-08-21T13:53:46;100222.36;;;20.35;72.51
67987;BME280;54767;53.800;15.956;2022-08-21T13:56:27;100220.04;;;20.35;72.46
67987;BME280;54767;53.800;15.956;2022-08-21T13:58:56;100223.83;;;20.38;72.84
67987;BME280;54767;53.800;15.956;2022-08-21T14:04:36;100226.61;;;20.44;71.57
67987;BME280;54767;53.800;15.956;2022-08-21T14:07:17;100223.85;;;20.43;71.55
67987;BME280;54767;53.800;15.956;2022-08-21T14:09:46;100225.07;;;20.43;71.27
67987;BME280;54767;53.800;15.956;2022-08-21T14:12:31;100224.00;;;20.43;71.14
67987;BME280;54767;53.800;15.956;2022-08-21T14:15:02;100223.27;;;20.39;71.09
67987;BME280;54767;53.800;15.956;2022-08-21T14:17:37;100226.25;;;20.40;71.45
67987;BME280;54767;53.800;15.956;2022-08-21T14:20:07;100229.61;;;20.41;70.75
67987;BME280;54767;53.800;15.956;2022-08-21T14:41:38;100238.79;;;20.28;68.92
67987;BME280;54767;53.800;15.956;2022-08-21T14:49:31;100255.38;;;20.26;69.31
67987;BME280;54767;53.800;15.956;2022-08-21T14:51:59;100249.48;;;20.27;69.21